Time;durP1;ratioP1;P1;durP2;ratioP2;P2;SDS_P1;SDS_P2;PMS_P1;PMS_P2;Temp;Humidity;BMP_temperature;BMP_pressure;BME280_temperature;BME280_humidity;BME280_pressure;Samples;Min_cycle;Max_cycle;Signal;HPM_P1;HPM_P2
2024/03/26 00:01:23;;;;;;;15.30;8.30;;;;;;;6.23;100.00;99051.02;109450;1250;60247;-55
2024/03/26 00:03:50;;;;;;;12.40;7.50;;;;;;;6.21;100.00;99049.15;109498;1251;60135;-60
2024/03/26 00:06:18;;;;;;;15.10;6.60;;;;;;;6.20;100.00;99044.38;109492;1250;73231;-55
2024/03/26 00:08:45;;;;;;;9.90;6.30;;;;;;;6.15;100.00;99043.41;109511;1250;65399;-56
2024/03/26 00:11:13;;;;;;;10.40;6.20;;;;;;;6.13;100.00;99042.76;109489;1250;72873;-56
2024/03/26 00:13:40;;;;;;;10.50;6.80;;;;;;;6.18;100.00;99040.30;109422;1250;60136;-56
2024/03/26 00:16:08;;;;;;;15.60;7.10;;;;;;;6.22;100.00;99041.17;109440;1249;59837;-59
2024/03/26 00:18:35;;;;;;;13.60;8.00;;;;;;;6.21;100.00;99044.35;109463;1251;75500;-56
2024/03/26 00:21:03;;;;;;;12.30;8.00;;;;;;;6.18;100.00;99052.02;109452;1250;67422;-56
2024/03/26 00:23:30;;;;;;;11.00;7.10;;;;;;;6.13;100.00;99051.68;109464;1249;72389;-55
2024/03/26 00:25:58;;;;;;;10.30;6.20;;;;;;;6.07;100.00;99048.76;109463;1250;59690;-55
2024/03/26 00:28:25;;;;;;;13.30;7.40;;;;;;;6.04;100.00;99053.10;109442;1250;60085;-56
2024/03/26 00:30:53;;;;;;;18.90;8.50;;;;;;;6.03;100.00;99054.58;109520;1249;75427;-56
2024/03/26 00:33:20;;;;;;;21.90;11.10;;;;;;;6.03;100.00;99054.58;109477;1250;65967;-56
2024/03/26 00:35:47;;;;;;;19.00;10.50;;;;;;;6.01;100.00;99061.55;109494;1250;71757;-56
2024/03/26 00:38:15;;;;;;;22.30;12.60;;;;;;;5.98;100.00;99063.98;109425;1250;60212;-56
2024/03/26 00:40:42;;;;;;;17.70;9.40;;;;;;;5.94;100.00;99064.61;109450;1250;60312;-56
2024/03/26 00:43:10;;;;;;;11.50;6.60;;;;;;;5.92;100.00;99061.60;109486;1249;75976;-57
2024/03/26 00:45:37;;;;;;;11.30;6.10;;;;;;;5.90;100.00;99067.65;109477;1250;67109;-55
2024/03/26 00:48:05;;;;;;;10.20;6.10;;;;;;;5.88;100.00;99068.77;109441;1252;72677;-58
2024/03/26 00:50:32;;;;;;;10.50;6.80;;;;;;;5.82;100.00;99067.59;109486;1251;59713;-56
2024/03/26 00:53:00;;;;;;;9.60;6.50;;;;;;;5.75;100.00;99070.45;109516;1249;59740;-56
2024/03/26 00:55:27;;;;;;;10.10;6.80;;;;;;;5.66;100.00;99066.92;109525;1250;75500;-56
2024/03/26 00:57:55;;;;;;;12.20;6.90;;;;;;;5.59;100.00;99067.48;109488;1250;65751;-56
2024/03/26 01:00:22;;;;;;;16.50;7.20;;;;;;;5.54;100.00;99064.28;109420;1250;71461;-58
2024/03/26 01:02:49;;;;;;;12.00;7.10;;;;;;;5.53;100.00;99062.27;109475;1251;59787;-55
2024/03/26 01:05:17;;;;;;;11.20;7.30;;;;;;;5.54;100.00;99063.05;109532;1250;59836;-55
2024/03/26 01:07:44;;;;;;;11.30;7.00;;;;;;;5.57;100.00;99059.85;109593;1250;74234;-55
2024/03/26 01:10:12;;;;;;;13.10;6.90;;;;;;;5.56;100.00;99061.46;109477;1250;67061;-60
2024/03/26 01:12:40;;;;;;;11.80;7.00;;;;;;;5.55;100.00;99062.65;109450;1250;71472;-56
2024/03/26 01:15:08;;;;;;;13.70;8.30;;;;;;;5.54;100.00;99065.66;109485;1251;59769;-56
2024/03/26 01:17:35;;;;;;;12.00;7.90;;;;;;;5.55;100.00;99065.98;109482;1250;59892;-55
2024/03/26 01:20:04;;;;;;;16.30;8.40;;;;;;;5.49;100.00;99062.89;109522;1249;75536;-60
2024/03/26 01:22:31;;;;;;;11.90;8.40;;;;;;;5.43;100.00;99065.95;109500;1255;67701;-55
2024/03/26 01:24:59;;;;;;;12.50;8.30;;;;;;;5.39;100.00;99066.61;109522;1250;72877;-57
2024/03/26 01:27:26;;;;;;;13.50;8.50;;;;;;;5.36;100.00;99064.70;109443;1250;60076;-55
2024/03/26 01:29:54;;;;;;;13.80;8.80;;;;;;;5.34;100.00;99065.31;109533;1250;60261;-56
2024/03/26 01:32:21;;;;;;;14.20;9.40;;;;;;;5.31;100.00;99063.61;109466;1250;74390;-56
2024/03/26 01:34:51;;;;;;;14.40;9.80;;;;;;;5.27;100.00;99060.02;109424;1250;67441;-57
2024/03/26 01:37:19;;;;;;;13.00;8.30;;;;;;;5.23;100.00;99066.08;109503;1250;72704;-55
2024/03/26 01:39:46;;;;;;;13.90;10.20;;;;;;;5.18;100.00;99066.45;109521;1250;59799;-55
2024/03/26 01:42:14;;;;;;;15.90;10.40;;;;;;;5.15;100.00;99069.38;109436;1250;60194;-56
2024/03/26 01:44:41;;;;;;;17.20;10.80;;;;;;;5.12;100.00;99071.39;109538;1250;75459;-56
2024/03/26 01:47:09;;;;;;;15.40;10.70;;;;;;;5.11;100.00;99070.88;109524;1250;64633;-55
2024/03/26 01:49:36;;;;;;;14.10;9.60;;;;;;;5.07;100.00;99069.46;109506;1250;71427;-55
2024/03/26 01:52:04;;;;;;;15.80;9.60;;;;;;;5.03;100.00;99073.73;109484;1250;60990;-57
2024/03/26 01:54:31;;;;;;;14.90;10.40;;;;;;;5.00;100.00;99075.08;109411;1250;60667;-56
2024/03/26 01:56:58;;;;;;;18.00;11.10;;;;;;;4.97;100.00;99080.52;109531;1251;75527;-56
2024/03/26 01:59:26;;;;;;;16.10;9.80;;;;;;;4.94;100.00;99076.78;109537;1250;65617;-55
2024/03/26 02:01:53;;;;;;;13.80;10.20;;;;;;;4.89;100.00;99075.95;109395;1250;71793;-55
2024/03/26 02:04:21;;;;;;;13.00;9.80;;;;;;;4.83;100.00;99077.50;109448;1250;59809;-56
2024/03/26 02:06:48;;;;;;;14.20;9.10;;;;;;;4.77;100.00;99079.42;109498;1250;60375;-55
2024/03/26 02:09:16;;;;;;;15.50;10.20;;;;;;;4.73;100.00;99084.91;109521;1250;74543;-56
2024/03/26 02:11:44;;;;;;;15.20;10.60;;;;;;;4.71;100.00;99083.61;109465;1250;65481;-55
2024/03/26 02:14:11;;;;;;;13.70;9.80;;;;;;;4.68;100.00;99083.77;109426;1250;71431;-55
2024/03/26 02:16:40;;;;;;;15.40;10.30;;;;;;;4.66;100.00;99079.80;109420;1250;59725;-56
2024/03/26 02:19:08;;;;;;;16.50;10.00;;;;;;;4.65;100.00;99084.05;109532;1250;59965;-56
2024/03/26 02:21:35;;;;;;;21.00;12.60;;;;;;;4.63;100.00;99086.27;109435;1250;75418;-55
2024/03/26 02:24:03;;;;;;;21.10;12.70;;;;;;;4.62;100.00;99087.15;109513;1250;64547;-55
2024/03/26 02:26:30;;;;;;;17.10;11.00;;;;;;;4.60;100.00;99084.30;109431;1250;72702;-59
2024/03/26 02:28:58;;;;;;;22.10;12.10;;;;;;;4.56;100.00;99084.16;109494;1253;61000;-56
2024/03/26 02:31:25;;;;;;;18.90;11.50;;;;;;;4.53;100.00;99084.58;109527;1250;59845;-55
2024/03/26 02:33:52;;;;;;;18.40;11.10;;;;;;;4.53;100.00;99084.19;109478;1250;75532;-55
2024/03/26 02:36:20;;;;;;;21.30;12.00;;;;;;;4.52;100.00;99088.06;109539;1250;64988;-55
2024/03/26 02:38:47;;;;;;;17.90;11.30;;;;;;;4.54;100.00;99094.17;109441;1250;71464;-56
2024/03/26 02:41:15;;;;;;;15.80;10.40;;;;;;;4.56;100.00;99094.53;109435;1253;59783;-55
2024/03/26 02:43:43;;;;;;;15.40;10.80;;;;;;;4.60;100.00;99099.77;109542;1250;59682;-56
2024/03/26 02:46:10;;;;;;;17.00;11.30;;;;;;;4.63;100.00;99101.31;109526;1250;74230;-55
2024/03/26 02:48:38;;;;;;;17.70;10.80;;;;;;;4.68;100.00;99099.39;109426;1254;65854;-56
2024/03/26 02:51:05;;;;;;;17.00;11.00;;;;;;;4.73;100.00;99101.07;109441;1250;73561;-55
2024/03/26 02:53:33;;;;;;;17.10;11.10;;;;;;;4.77;100.00;99101.15;109461;1250;61309;-55
2024/03/26 02:56:00;;;;;;;16.00;11.70;;;;;;;4.81;100.00;99102.23;109519;1250;60260;-56
2024/03/26 02:58:27;;;;;;;15.60;11.30;;;;;;;4.84;100.00;99103.54;109487;1250;75428;-55
2024/03/26 03:01:11;;;;;;;16.50;10.00;;;;;;;4.88;100.00;99104.98;109447;1249;66094;-59
2024/03/26 03:03:39;;;;;;;14.00;9.10;;;;;;;4.94;100.00;99106.73;109474;1252;72750;-55
2024/03/26 03:06:09;;;;;;;16.10;10.50;;;;;;;5.00;100.00;99109.85;109460;1250;59985;-55
2024/03/26 03:08:37;;;;;;;14.30;9.60;;;;;;;5.04;100.00;99112.15;109444;1250;60433;-56
2024/03/26 03:11:05;;;;;;;13.80;10.30;;;;;;;5.07;100.00;99110.82;109464;1250;75808;-56
2024/03/26 03:13:32;;;;;;;15.60;10.30;;;;;;;5.08;100.00;99109.66;109473;1249;65883;-56
2024/03/26 03:15:59;;;;;;;14.80;8.60;;;;;;;5.08;100.00;99109.42;109433;1251;72753;-55
2024/03/26 03:18:27;;;;;;;12.60;9.10;;;;;;;5.09;100.00;99106.41;109424;1250;60006;-57
2024/03/26 03:20:55;;;;;;;13.80;9.20;;;;;;;5.11;100.00;99107.48;109488;1250;59684;-56
2024/03/26 03:23:22;;;;;;;16.40;9.20;;;;;;;5.16;100.00;99111.09;109479;1250;77712;-56
2024/03/26 03:25:56;;;;;;;13.60;7.80;;;;;;;5.23;100.00;99112.03;109470;1250;67077;-55
2024/03/26 03:28:23;;;;;;;12.20;8.70;;;;;;;5.32;100.00;99112.55;109469;1250;72392;-60
2024/03/26 03:30:51;;;;;;;11.70;7.90;;;;;;;5.39;100.00;99113.48;109445;1250;60146;-55
2024/03/26 03:33:19;;;;;;;15.40;8.40;;;;;;;5.43;100.00;99112.13;109484;1250;60276;-55
2024/03/26 03:35:46;;;;;;;11.20;8.20;;;;;;;5.45;100.00;99110.52;109508;1250;74200;-56
2024/03/26 03:38:14;;;;;;;10.40;7.50;;;;;;;5.50;100.00;99111.17;109248;1257;66969;-55
2024/03/26 03:40:41;;;;;;;10.80;7.30;;;;;;;5.55;100.00;99115.52;109438;1250;70769;-56
2024/03/26 03:43:09;;;;;;;11.80;7.70;;;;;;;5.63;100.00;99115.20;109465;1256;59821;-56
2024/03/26 03:45:37;;;;;;;11.60;8.40;;;;;;;5.69;100.00;99117.78;109546;1250;60387;-56
2024/03/26 03:48:04;;;;;;;13.80;8.10;;;;;;;5.72;100.00;99114.10;109548;1250;74241;-55
2024/03/26 03:50:32;;;;;;;13.90;7.40;;;;;;;5.74;100.00;99114.52;109473;1250;66867;-60
2024/03/26 03:52:59;;;;;;;10.80;6.90;;;;;;;5.78;100.00;99119.45;109455;1250;71186;-56
2024/03/26 03:55:27;;;;;;;11.00;7.60;;;;;;;5.81;100.00;99121.09;109510;1250;59779;-56
2024/03/26 03:57:54;;;;;;;10.70;7.00;;;;;;;5.83;100.00;99124.67;109510;1250;59745;-56
2024/03/26 04:00:22;;;;;;;11.00;7.80;;;;;;;5.85;100.00;99124.77;109493;1250;74209;-59
2024/03/26 04:02:49;;;;;;;12.00;8.10;;;;;;;5.88;100.00;99125.55;109497;1251;66209;-56
2024/03/26 04:05:17;;;;;;;13.80;7.60;;;;;;;5.90;100.00;99124.65;109422;1250;71477;-56
2024/03/26 04:07:45;;;;;;;11.10;6.50;;;;;;;5.92;100.00;99123.16;109506;1250;59772;-56
2024/03/26 04:10:12;;;;;;;10.70;7.60;;;;;;;5.99;100.00;99122.38;109497;1250;60138;-55
2024/03/26 04:12:39;;;;;;;11.50;7.60;;;;;;;5.98;100.00;99121.52;109469;1249;73761;-56
2024/03/26 04:15:07;;;;;;;10.70;7.80;;;;;;;6.01;100.00;99123.34;109547;1250;67045;-56
2024/03/26 04:17:34;;;;;;;11.70;7.60;;;;;;;6.04;100.00;99124.66;109493;1250;72769;-55
2024/03/26 04:20:02;;;;;;;11.30;7.30;;;;;;;6.09;100.00;99129.61;109526;1250;59754;-55
2024/03/26 04:22:30;;;;;;;11.50;8.20;;;;;;;6.14;100.00;99130.38;109525;1250;60072;-56
2024/03/26 04:24:58;;;;;;;12.00;8.00;;;;;;;6.21;100.00;99133.24;109470;1256;74645;-55
2024/03/26 04:27:25;;;;;;;13.10;8.90;;;;;;;6.26;100.00;99134.81;109548;1249;67314;-55
2024/03/26 04:29:53;;;;;;;15.20;8.70;;;;;;;6.31;100.00;99136.30;109514;1253;72754;-56
2024/03/26 04:32:20;;;;;;;14.10;7.70;;;;;;;6.35;100.00;99135.52;109524;1251;60950;-55
2024/03/26 04:34:47;;;;;;;12.10;7.90;;;;;;;6.38;100.00;99137.01;109497;1250;60066;-58
2024/03/26 04:37:15;;;;;;;11.90;7.80;;;;;;;6.41;100.00;99133.78;109525;1256;75567;-55
2024/03/26 04:39:42;;;;;;;15.60;9.60;;;;;;;6.42;100.00;99136.18;109536;1250;67429;-55
2024/03/26 04:42:10;;;;;;;17.40;9.30;;;;;;;6.46;100.00;99139.73;109529;1250;71418;-55
2024/03/26 04:44:38;;;;;;;13.50;8.80;;;;;;;6.48;100.00;99145.27;109507;1249;60392;-55
2024/03/26 04:47:05;;;;;;;14.50;8.70;;;;;;;6.51;100.00;99145.35;109447;1250;60115;-55
2024/03/26 04:49:33;;;;;;;14.10;9.50;;;;;;;6.50;100.00;99149.40;109515;1251;75527;-55
2024/03/26 04:52:00;;;;;;;14.50;8.70;;;;;;;6.50;100.00;99148.65;109527;1250;66168;-56
2024/03/26 04:54:28;;;;;;;15.90;10.00;;;;;;;6.52;100.00;99149.39;109482;1251;71442;-55
2024/03/26 04:56:56;;;;;;;14.80;9.10;;;;;;;6.53;100.00;99147.67;109476;1252;59818;-58
2024/03/26 04:59:24;;;;;;;16.80;8.80;;;;;;;6.55;100.00;99146.91;109460;1250;60767;-55
2024/03/26 05:01:52;;;;;;;17.00;9.70;;;;;;;6.56;100.00;99148.13;109523;1251;75496;-55
2024/03/26 05:04:19;;;;;;;15.60;8.50;;;;;;;6.58;100.00;99153.03;109500;1250;65713;-55
2024/03/26 05:06:46;;;;;;;16.10;9.90;;;;;;;6.62;100.00;99157.29;109512;1251;72781;-55
2024/03/26 05:09:14;;;;;;;17.60;9.00;;;;;;;6.65;100.00;99164.34;109432;1253;59693;-55
2024/03/26 05:11:41;;;;;;;14.30;8.10;;;;;;;6.68;100.00;99169.16;109490;1250;59824;-55
2024/03/26 05:14:09;;;;;;;15.50;9.30;;;;;;;6.72;100.00;99176.73;109478;1250;74212;-55
2024/03/26 05:16:36;;;;;;;15.90;9.50;;;;;;;6.78;100.00;99178.28;109534;1250;66193;-55
2024/03/26 05:19:04;;;;;;;14.20;9.30;;;;;;;6.86;100.00;99172.90;109450;1249;71448;-56
2024/03/26 05:21:31;;;;;;;14.20;9.50;;;;;;;6.92;100.00;99172.80;109496;1251;59887;-55
2024/03/26 05:23:59;;;;;;;15.10;9.60;;;;;;;6.98;100.00;99176.88;109453;1255;60189;-55
2024/03/26 05:26:27;;;;;;;20.60;10.20;;;;;;;7.03;100.00;99175.77;109469;1256;75543;-55
2024/03/26 05:28:54;;;;;;;20.10;9.80;;;;;;;7.06;100.00;99174.48;109459;1251;65604;-55
2024/03/26 05:31:21;;;;;;;16.90;10.70;;;;;;;7.09;100.00;99177.54;109448;1251;72816;-56
2024/03/26 05:33:49;;;;;;;17.40;9.90;;;;;;;7.09;100.00;99179.21;109439;1250;59693;-56
2024/03/26 05:36:17;;;;;;;13.50;8.50;;;;;;;7.12;100.00;99177.83;109514;1251;59724;-55
2024/03/26 05:38:44;;;;;;;16.80;8.80;;;;;;;7.14;100.00;99184.66;109471;1250;75766;-55
2024/03/26 05:41:12;;;;;;;15.10;8.30;;;;;;;7.15;100.00;99185.95;109460;1250;67100;-55
2024/03/26 05:43:39;;;;;;;15.10;9.20;;;;;;;7.15;100.00;99187.77;109462;1250;72856;-56
2024/03/26 05:46:06;;;;;;;14.50;8.80;;;;;;;7.15;100.00;99192.05;109438;1251;60179;-56
2024/03/26 05:48:34;;;;;;;13.70;8.60;;;;;;;7.15;100.00;99196.70;109483;1251;59775;-56
2024/03/26 05:51:01;;;;;;;13.90;8.20;;;;;;;7.15;100.00;99197.16;109503;1250;74252;-54
2024/03/26 05:53:29;;;;;;;10.80;6.90;;;;;;;7.19;100.00;99203.05;109480;1255;65637;-55
2024/03/26 05:55:56;;;;;;;15.20;8.50;;;;;;;7.24;100.00;99209.00;109479;1251;73179;-56
2024/03/26 05:58:24;;;;;;;12.60;9.30;;;;;;;7.26;100.00;99213.11;109496;1251;60100;-56
2024/03/26 06:00:51;;;;;;;15.80;9.90;;;;;;;7.21;100.00;99216.27;109456;1256;60201;-55
2024/03/26 06:03:19;;;;;;;13.20;9.20;;;;;;;7.13;100.00;99218.50;109468;1250;74287;-56
2024/03/26 06:05:46;;;;;;;15.20;9.30;;;;;;;7.08;100.00;99218.70;109463;1250;67063;-56
2024/03/26 06:08:14;;;;;;;13.20;8.60;;;;;;;7.09;100.00;99228.85;109439;1250;74721;-56
2024/03/26 06:10:41;;;;;;;13.70;8.80;;;;;;;7.14;100.00;99231.87;109467;1250;62504;-55
2024/03/26 06:13:09;;;;;;;15.30;9.40;;;;;;;7.23;100.00;99233.47;109496;1250;62528;-55
2024/03/26 06:15:36;;;;;;;14.50;9.00;;;;;;;7.37;100.00;99231.23;109415;1250;75911;-58
2024/03/26 06:18:04;;;;;;;14.30;9.30;;;;;;;7.51;100.00;99236.48;109497;1255;66949;-56
2024/03/26 06:20:32;;;;;;;13.40;8.40;;;;;;;7.66;100.00;99238.98;109428;1251;72746;-55
2024/03/26 06:22:59;;;;;;;14.50;9.20;;;;;;;7.80;100.00;99242.48;109463;1256;59736;-55
2024/03/26 06:25:26;;;;;;;13.00;9.20;;;;;;;7.93;100.00;99238.86;109510;1251;60282;-55
2024/03/26 06:27:54;;;;;;;13.50;8.80;;;;;;;8.06;100.00;99239.33;109431;1251;75554;-55
2024/03/26 06:30:21;;;;;;;13.10;8.70;;;;;;;8.22;100.00;99236.98;109515;1250;67123;-55
2024/03/26 06:32:49;;;;;;;13.80;8.50;;;;;;;8.37;100.00;99237.86;109465;1251;71410;-55
2024/03/26 06:35:17;;;;;;;13.90;9.50;;;;;;;8.51;100.00;99233.77;109436;1255;61594;-55
2024/03/26 06:37:44;;;;;;;14.50;9.30;;;;;;;8.62;100.00;99234.05;109487;1251;60493;-58
2024/03/26 06:40:12;;;;;;;16.40;9.30;;;;;;;8.73;100.00;99234.36;109495;1251;76016;-55
2024/03/26 06:42:39;;;;;;;14.50;9.50;;;;;;;8.86;100.00;99228.27;109495;1250;67050;-55
2024/03/26 06:45:07;;;;;;;15.90;8.70;;;;;;;8.95;100.00;99223.84;109473;1251;75474;-55
2024/03/26 06:47:35;;;;;;;15.00;9.90;;;;;;;9.06;100.00;99220.94;109490;1249;61065;-55
2024/03/26 06:50:03;;;;;;;15.20;9.60;;;;;;;9.18;100.00;99221.36;109441;1250;60307;-55
2024/03/26 06:52:30;;;;;;;17.50;9.10;;;;;;;9.28;100.00;99214.24;109500;1250;75500;-55
2024/03/26 06:54:58;;;;;;;13.90;8.50;;;;;;;9.43;100.00;99214.76;109442;1251;68880;-55
2024/03/26 06:57:25;;;;;;;18.40;9.70;;;;;;;9.65;100.00;99213.33;109470;1250;72886;-55
2024/03/26 06:59:53;;;;;;;17.60;10.50;;;;;;;9.94;100.00;99215.08;109458;1251;61594;-56
2024/03/26 07:02:20;;;;;;;13.60;10.40;;;;;;;10.26;100.00;99211.84;109477;1250;62787;-56
2024/03/26 07:04:48;;;;;;;16.50;9.90;;;;;;;10.58;100.00;99214.68;109482;1251;78044;-55
2024/03/26 07:07:16;;;;;;;15.20;10.20;;;;;;;10.98;100.00;99211.55;109540;1251;67842;-56
2024/03/26 07:09:43;;;;;;;13.90;9.60;;;;;;;11.40;100.00;99207.42;109481;1251;74402;-55
2024/03/26 07:12:11;;;;;;;14.80;9.10;;;;;;;11.81;100.00;99205.33;109459;1251;59794;-59
2024/03/26 07:14:39;;;;;;;14.60;9.90;;;;;;;12.23;100.00;99200.63;109434;1250;62855;-55
2024/03/26 07:17:07;;;;;;;14.90;9.20;;;;;;;12.53;100.00;99199.71;109486;1251;78148;-56
2024/03/26 07:19:35;;;;;;;11.30;8.20;;;;;;;12.67;100.00;99192.91;109495;1250;69977;-56
2024/03/26 07:22:02;;;;;;;13.50;8.10;;;;;;;12.83;100.00;99188.36;109480;1251;74849;-56
2024/03/26 07:24:30;;;;;;;9.70;7.10;;;;;;;13.01;100.00;99191.61;109382;1256;62195;-56
2024/03/26 07:26:58;;;;;;;10.60;7.50;;;;;;;13.18;100.00;99190.83;109437;1250;60485;-56
2024/03/26 07:29:26;;;;;;;9.40;6.30;;;;;;;13.37;100.00;99186.77;109482;1251;76848;-55
2024/03/26 07:31:53;;;;;;;10.40;6.50;;;;;;;13.56;100.00;99185.95;109493;1249;67793;-56
2024/03/26 07:34:22;;;;;;;9.40;6.50;;;;;;;13.80;100.00;99186.96;109420;1251;75491;-59
2024/03/26 07:36:49;;;;;;;14.00;6.10;;;;;;;13.99;100.00;99183.41;109379;1251;62629;-55
2024/03/26 07:39:20;;;;;;;9.00;5.80;;;;;;;14.25;100.00;99184.81;109502;1251;62378;-56
2024/03/26 07:41:47;;;;;;;10.00;5.20;;;;;;;14.58;99.09;99182.15;109505;1251;77348;-56
2024/03/26 07:44:15;;;;;;;7.70;5.00;;;;;;;14.82;91.82;99183.09;109435;1251;67784;-56
2024/03/26 07:46:43;;;;;;;7.60;5.00;;;;;;;14.94;85.68;99183.39;109457;1251;74134;-59
2024/03/26 07:49:11;;;;;;;6.90;4.70;;;;;;;15.08;84.30;99183.20;109466;1252;60833;-56
2024/03/26 07:51:39;;;;;;;7.30;5.10;;;;;;;15.41;82.82;99179.28;109475;1249;62223;-56
2024/03/26 07:54:06;;;;;;;8.10;5.30;;;;;;;15.90;76.45;99177.39;109493;1249;77790;-56
2024/03/26 07:56:34;;;;;;;8.10;5.70;;;;;;;16.37;69.21;99172.26;109424;1251;67152;-56
2024/03/26 07:59:02;;;;;;;8.60;5.60;;;;;;;16.65;64.15;99173.52;109451;1250;75422;-56
2024/03/26 08:01:30;;;;;;;9.80;5.80;;;;;;;16.95;63.58;99171.14;109461;1250;61482;-56
2024/03/26 08:03:58;;;;;;;9.00;5.50;;;;;;;17.39;59.00;99176.67;109466;1249;61088;-56
2024/03/26 08:06:26;;;;;;;7.50;5.30;;;;;;;17.64;55.21;99175.23;109467;1250;77008;-56
2024/03/26 08:08:53;;;;;;;10.40;5.50;;;;;;;17.81;52.62;99178.40;109386;1251;68969;-57
2024/03/26 08:11:21;;;;;;;7.30;5.00;;;;;;;17.89;51.67;99177.02;109482;1251;75270;-56
2024/03/26 08:13:48;;;;;;;7.50;4.60;;;;;;;18.18;50.83;99177.39;109493;1250;61658;-57
2024/03/26 08:16:16;;;;;;;6.50;5.20;;;;;;;18.45;47.71;99174.77;109479;1250;61448;-56
2024/03/26 08:18:43;;;;;;;5.90;4.40;;;;;;;18.57;46.69;99171.27;109464;1250;78101;-59
2024/03/26 08:21:11;;;;;;;7.10;4.60;;;;;;;18.80;45.91;99175.68;109438;1252;69329;-56
2024/03/26 08:23:39;;;;;;;7.70;5.20;;;;;;;18.99;43.91;99175.48;109474;1249;74873;-56
2024/03/26 08:26:06;;;;;;;6.20;4.80;;;;;;;19.01;43.20;99169.10;109437;1251;62273;-56
2024/03/26 08:28:34;;;;;;;8.90;4.90;;;;;;;19.03;42.72;99171.78;109424;1249;61468;-56
2024/03/26 08:31:01;;;;;;;10.00;7.60;;;;;;;19.07;43.90;99166.03;109412;1251;75803;-56
2024/03/26 08:33:32;;;;;;;6.90;5.00;;;;;;;19.39;42.81;99161.34;109573;1249;69255;-56
2024/03/26 08:36:04;;;;;;;6.80;4.60;;;;;;;19.74;41.09;99166.09;109506;1251;74848;-56
2024/03/26 08:38:32;;;;;;;5.30;3.80;;;;;;;19.66;39.04;99161.03;109428;1250;61517;-55
2024/03/26 08:41:00;;;;;;;6.50;4.70;;;;;;;19.41;39.14;99163.66;109407;1250;63096;-54
2024/03/26 08:43:27;;;;;;;7.50;3.60;;;;;;;19.36;39.06;99156.64;109489;1251;77543;-54
2024/03/26 08:45:55;;;;;;;5.20;3.60;;;;;;;19.48;38.68;99159.58;109482;1250;68983;-56
2024/03/26 08:48:22;;;;;;;5.70;3.90;;;;;;;19.53;37.90;99155.42;109464;1250;74920;-54
2024/03/26 08:50:50;;;;;;;7.00;4.00;;;;;;;19.37;38.25;99159.27;109474;1251;62558;-58
2024/03/26 08:53:18;;;;;;;5.60;4.00;;;;;;;19.20;38.35;99153.75;109455;1250;62532;-55
2024/03/26 08:55:45;;;;;;;5.90;3.70;;;;;;;19.11;38.93;99151.08;109442;1253;77958;-54
2024/03/26 08:58:13;;;;;;;6.10;3.90;;;;;;;19.22;38.74;99145.41;109509;1249;68375;-55
2024/03/26 09:00:46;;;;;;;7.60;4.00;;;;;;;19.37;38.67;99143.33;109476;1249;75353;-55
2024/03/26 09:03:14;;;;;;;5.10;3.10;;;;;;;19.38;37.63;99145.64;109420;1250;61043;-55
2024/03/26 09:05:42;;;;;;;3.90;3.00;;;;;;;19.29;37.11;99149.09;109380;1250;62996;-55
2024/03/26 09:08:09;;;;;;;5.90;3.40;;;;;;;19.23;37.35;99141.86;109486;1249;77997;-54
2024/03/26 09:10:37;;;;;;;4.90;2.70;;;;;;;19.36;37.27;99145.23;109446;1250;69397;-55
2024/03/26 09:13:05;;;;;;;4.00;2.90;;;;;;;19.54;36.91;99138.05;109386;1250;75005;-59
2024/03/26 09:15:32;;;;;;;6.50;3.30;;;;;;;19.58;35.92;99137.02;109443;1251;62077;-55
2024/03/26 09:18:00;;;;;;;5.10;3.50;;;;;;;19.44;36.02;99147.85;109460;1250;60931;-55
2024/03/26 09:20:27;;;;;;;5.60;3.20;;;;;;;19.23;36.17;99145.24;109464;1249;78000;-55
2024/03/26 09:22:55;;;;;;;5.00;3.30;;;;;;;19.11;36.43;99147.54;109469;1251;69484;-55
2024/03/26 09:25:25;;;;;;;6.90;4.80;;;;;;;19.08;36.35;99147.96;109457;1249;74827;-59
2024/03/26 09:27:52;;;;;;;5.80;4.40;;;;;;;18.91;35.52;99150.92;109400;1252;62659;-55
2024/03/26 09:30:20;;;;;;;5.10;3.60;;;;;;;18.57;35.85;99147.73;109473;1250;60771;-56
2024/03/26 09:32:48;;;;;;;5.20;3.30;;;;;;;18.33;36.52;99145.77;109444;1249;77474;-56
2024/03/26 09:35:15;;;;;;;4.80;3.30;;;;;;;18.20;36.90;99144.70;109472;1250;68887;-56
2024/03/26 09:37:44;;;;;;;5.70;3.40;;;;;;;18.08;36.96;99151.27;109405;1251;75323;-57
2024/03/26 09:40:12;;;;;;;4.80;3.60;;;;;;;18.01;37.40;99158.71;109468;1250;62620;-56
2024/03/26 09:42:41;;;;;;;5.50;3.30;;;;;;;17.91;37.53;99151.83;109494;1250;62866;-56
2024/03/26 09:45:11;;;;;;;6.50;3.70;;;;;;;17.73;37.24;99163.70;109461;1250;77952;-55
2024/03/26 09:47:41;;;;;;;7.00;3.90;;;;;;;17.30;37.90;99161.23;109347;1250;69468;-56
2024/03/26 09:50:10;;;;;;;7.00;3.90;;;;;;;17.10;38.85;99165.05;109299;1250;75033;-57
2024/03/26 09:52:38;;;;;;;5.10;3.40;;;;;;;17.07;40.00;99161.16;109490;1250;62186;-55
2024/03/26 09:55:06;;;;;;;5.60;3.30;;;;;;;17.07;39.93;99159.33;109499;1250;62379;-57
2024/03/26 09:57:34;;;;;;;6.20;3.50;;;;;;;16.91;39.73;99168.79;109371;1250;77654;-59
2024/03/26 10:00:02;;;;;;;5.80;3.30;;;;;;;16.73;39.58;99164.27;109546;1250;69190;-56
2024/03/26 10:02:31;;;;;;;6.30;3.50;;;;;;;16.57;39.61;99166.77;109451;1250;75260;-56
2024/03/26 10:04:58;;;;;;;4.60;3.50;;;;;;;16.41;39.99;99164.45;109462;1252;62984;-56
2024/03/26 10:07:26;;;;;;;5.90;3.70;;;;;;;16.41;40.54;99167.08;109498;1249;62591;-56
2024/03/26 10:09:54;;;;;;;5.50;3.20;;;;;;;16.54;40.13;99169.80;109425;1250;77981;-56
2024/03/26 10:12:22;;;;;;;5.30;3.10;;;;;;;16.74;39.78;99165.61;109526;1250;69364;-56
2024/03/26 10:14:50;;;;;;;4.60;2.80;;;;;;;16.93;39.30;99173.64;109442;1250;74265;-55
2024/03/26 10:17:19;;;;;;;6.10;3.40;;;;;;;16.99;39.60;99170.85;109489;1253;62478;-55
2024/03/26 10:19:47;;;;;;;7.70;3.70;;;;;;;16.95;39.54;99170.34;109447;1249;61960;-56
2024/03/26 10:22:15;;;;;;;7.80;3.30;;;;;;;16.88;39.05;99174.55;109346;1250;76183;-56
2024/03/26 10:24:43;;;;;;;5.50;3.30;;;;;;;16.67;38.54;99174.02;109517;1250;68862;-55
2024/03/26 10:27:11;;;;;;;5.90;3.80;;;;;;;16.46;38.99;99173.02;109527;1249;75155;-55
2024/03/26 10:29:38;;;;;;;6.00;3.70;;;;;;;16.33;39.42;99173.63;109431;1252;61118;-59
2024/03/26 10:32:06;;;;;;;5.50;3.10;;;;;;;16.25;39.85;99175.64;109494;1249;61213;-56
2024/03/26 10:34:34;;;;;;;7.60;3.20;;;;;;;16.08;40.65;99181.14;109413;1250;77560;-56
2024/03/26 10:37:02;;;;;;;6.00;3.90;;;;;;;15.88;41.46;99185.52;109439;1249;68543;-56
2024/03/26 10:39:32;;;;;;;8.20;3.90;;;;;;;15.76;41.97;99184.48;109423;1250;74546;-60
2024/03/26 10:42:00;;;;;;;9.20;5.20;;;;;;;15.69;42.23;99188.85;109325;1253;61561;-53
2024/03/26 10:44:28;;;;;;;6.20;3.90;;;;;;;15.67;42.06;99190.77;109404;1250;62095;-55
2024/03/26 10:46:56;;;;;;;4.30;2.20;;;;;;;15.60;41.69;99190.21;109438;1250;78016;-55
2024/03/26 10:49:25;;;;;;;5.00;2.30;;;;;;;15.52;41.07;99189.42;109429;1249;68709;-58
2024/03/26 10:51:53;;;;;;;3.80;2.30;;;;;;;15.50;40.86;99187.30;109437;1250;73315;-54
2024/03/26 10:54:21;;;;;;;5.60;2.50;;;;;;;15.56;40.96;99187.95;109453;1250;61178;-54
2024/03/26 10:56:49;;;;;;;5.10;3.00;;;;;;;15.63;40.98;99184.79;109385;1250;62560;-54
2024/03/26 10:59:17;;;;;;;5.30;3.30;;;;;;;15.60;41.25;99180.75;109492;1250;77964;-55
2024/03/26 11:01:44;;;;;;;6.50;3.60;;;;;;;15.54;41.48;99184.62;109471;1250;69551;-56
2024/03/26 11:04:12;;;;;;;6.30;4.10;;;;;;;15.44;41.93;99188.15;109307;1250;73827;-55
2024/03/26 11:06:40;;;;;;;9.40;5.20;;;;;;;15.31;42.31;99187.64;109483;1253;59786;-56
2024/03/26 11:09:08;;;;;;;7.10;4.60;;;;;;;15.16;42.51;99190.35;109373;1249;63469;-57
2024/03/26 11:11:35;;;;;;;5.30;3.20;;;;;;;15.06;42.64;99189.67;109456;1250;78001;-58
2024/03/26 11:14:03;;;;;;;6.90;4.10;;;;;;;15.00;42.86;99186.63;109323;1250;235469;-56
2024/03/26 11:16:41;;;;;;;7.70;4.10;;;;;;;14.96;43.20;99194.91;109436;1250;74890;-56
2024/03/26 11:19:23;;;;;;;4.80;2.90;;;;;;;14.92;42.91;99195.73;109352;1250;62186;-56
2024/03/26 11:21:53;;;;;;;5.90;3.60;;;;;;;14.80;42.84;99193.45;109446;1250;60796;-56